La plateforme de Tours Sorigny


Adresse :

Aérodrome de Tours-Sorigny

RD 910

37250 SORIGNY


Carte VAC :

https://www.sia.aviation-civile.gouv.fr/dvd/eAIP_19_JUL_2018/Atlas-VAC/PDF_AIPparSSection/VAC/AD/AD-2.LFEN.pdf

METAR / TAF:

LFOT 191500Z AUTO 01006KT CAVOK 19/12 Q1021 NOSIG

TAF LFOT 191100Z 1912/2012 04006KT 8000 FEW006 PROB30 TEMPO 2004/2008 2000 BR BKN004